createdAt,value
2018-12-17T00:00:52.238Z,52.63
2018-12-17T00:05:04.383Z,27.90
2018-12-17T00:09:16.443Z,11.57
2018-12-17T00:13:28.532Z,4.10
2018-12-17T00:17:40.699Z,3.87
2018-12-17T00:21:52.790Z,4.67
2018-12-17T00:26:04.762Z,4.20
2018-12-17T00:30:16.859Z,3.90
2018-12-17T00:34:28.947Z,3.77
2018-12-17T00:38:40.979Z,3.00
2018-12-17T00:42:53.196Z,3.57
2018-12-17T00:47:05.356Z,3.60
2018-12-17T00:51:16.982Z,2.97
2018-12-17T00:55:29.042Z,2.93
2018-12-17T00:59:40.838Z,3.40
2018-12-17T01:03:52.535Z,2.90
2018-12-17T01:08:04.450Z,2.90
2018-12-17T01:12:16.926Z,3.37
2018-12-17T01:16:28.667Z,2.83
2018-12-17T01:20:40.522Z,3.57
2018-12-17T01:24:52.519Z,3.13
2018-12-17T01:29:04.549Z,2.70
2018-12-17T01:33:16.727Z,2.80
2018-12-17T01:37:28.267Z,2.80
2018-12-17T01:41:39.984Z,3.67
2018-12-17T01:45:51.813Z,3.83
2018-12-17T01:50:03.668Z,3.40
2018-12-17T01:54:15.727Z,3.27
2018-12-17T01:58:29.367Z,2.60
2018-12-17T02:02:41.598Z,3.33
2018-12-17T02:06:53.172Z,3.17
2018-12-17T02:11:05.257Z,3.30
2018-12-17T02:15:16.947Z,2.87
2018-12-17T02:19:29.159Z,2.10
2018-12-17T02:23:40.963Z,1.43
2018-12-17T02:27:52.707Z,1.40
2018-12-17T02:32:04.649Z,2.00
2018-12-17T02:36:16.520Z,1.77
2018-12-17T02:40:28.540Z,1.90
2018-12-17T02:44:40.620Z,1.67
2018-12-17T02:48:52.191Z,1.90
2018-12-17T02:53:04.199Z,1.70
2018-12-17T02:57:15.866Z,1.70
2018-12-17T03:01:27.768Z,2.13
2018-12-17T03:05:39.759Z,2.00
2018-12-17T03:09:51.865Z,2.00
2018-12-17T03:14:03.844Z,1.67
2018-12-17T03:18:15.852Z,1.43
2018-12-17T03:22:27.856Z,1.90
2018-12-17T03:26:39.412Z,2.07
2018-12-17T03:30:51.524Z,1.60
2018-12-17T03:35:03.360Z,1.43
2018-12-17T03:39:15.227Z,1.80
2018-12-17T03:43:27.114Z,2.00
2018-12-17T03:47:39.000Z,2.10
2018-12-17T03:51:50.999Z,1.23
2018-12-17T03:56:03.152Z,1.33
2018-12-17T04:00:15.123Z,1.80
2018-12-17T04:04:27.015Z,1.63
2018-12-17T04:08:39.103Z,2.33
2018-12-17T04:12:51.514Z,1.83
2018-12-17T04:17:03.439Z,2.00
2018-12-17T04:21:15.539Z,1.97
2018-12-17T04:25:27.544Z,2.10
2018-12-17T04:29:39.793Z,1.87
2018-12-17T04:33:51.909Z,1.93
2018-12-17T04:38:03.963Z,2.43
2018-12-17T04:42:16.070Z,2.13
2018-12-17T04:46:27.603Z,1.90
2018-12-17T04:50:39.434Z,1.90
2018-12-17T04:54:51.183Z,2.13
2018-12-17T04:59:03.435Z,1.83
2018-12-17T05:03:15.291Z,1.73
2018-12-17T05:07:27.199Z,2.40
2018-12-17T05:11:39.404Z,1.90
2018-12-17T05:15:54.869Z,2.17
2018-12-17T05:20:06.716Z,2.63
2018-12-17T05:24:18.853Z,2.60
2018-12-17T05:28:30.927Z,2.80
2018-12-17T05:32:43.044Z,2.00
2018-12-17T05:36:55.048Z,2.27
2018-12-17T05:41:07.137Z,1.87
2018-12-17T05:45:19.141Z,1.90
2018-12-17T05:49:31.347Z,2.10
2018-12-17T05:53:43.039Z,2.07
2018-12-17T05:57:54.786Z,2.37
2018-12-17T06:02:06.677Z,2.80
2018-12-17T06:06:18.571Z,2.37
2018-12-17T06:10:30.660Z,2.27
2018-12-17T06:14:42.687Z,2.80
2018-12-17T06:18:54.688Z,2.70
2018-12-17T06:23:06.895Z,2.47
2018-12-17T06:27:19.000Z,2.13
2018-12-17T06:31:31.200Z,2.47
2018-12-17T06:35:43.207Z,2.40
2018-12-17T06:39:55.580Z,2.50
2018-12-17T06:44:07.686Z,1.87
2018-12-17T06:48:19.952Z,2.30
2018-12-17T06:52:32.083Z,2.00
2018-12-17T06:56:44.416Z,2.77
2018-12-17T07:00:56.699Z,2.43
2018-12-17T07:05:08.915Z,1.70
2018-12-17T07:09:20.861Z,2.20
2018-12-17T07:13:33.796Z,2.10
2018-12-17T07:17:46.141Z,2.60
2018-12-17T07:21:58.470Z,3.37
2018-12-17T07:26:10.160Z,3.10
2018-12-17T07:30:22.160Z,3.13
2018-12-17T07:34:34.508Z,2.77
2018-12-17T07:38:46.378Z,3.00
2018-12-17T07:42:58.395Z,2.40
2018-12-17T07:47:10.479Z,2.37
2018-12-17T07:51:22.499Z,2.60
2018-12-17T07:55:34.618Z,2.80
2018-12-17T07:59:46.714Z,2.90
2018-12-17T08:03:58.828Z,3.13
2018-12-17T08:08:11.083Z,2.67
2018-12-17T08:12:23.147Z,3.03
2018-12-17T08:16:35.235Z,2.93
2018-12-17T08:20:46.792Z,2.80
2018-12-17T08:24:58.484Z,3.00
2018-12-17T08:29:10.360Z,3.33
2018-12-17T08:33:22.358Z,3.37
2018-12-17T08:37:34.359Z,3.37
2018-12-17T08:41:46.553Z,3.63
2018-12-17T08:45:58.109Z,4.27
2018-12-17T08:50:09.940Z,3.67
2018-12-17T08:54:21.663Z,3.57
2018-12-17T08:58:33.875Z,4.07
2018-12-17T09:02:45.911Z,3.20
2018-12-17T09:06:57.980Z,3.80
2018-12-17T09:11:09.906Z,4.37
2018-12-17T09:15:22.023Z,4.20
2018-12-17T09:19:34.116Z,3.57
2018-12-17T09:23:46.214Z,3.50
2018-12-17T09:27:57.842Z,3.43
2018-12-17T09:32:09.672Z,3.00
2018-12-17T09:36:21.544Z,2.60
2018-12-17T09:40:33.570Z,3.53
2018-12-17T09:44:45.543Z,2.27
2018-12-17T09:48:57.535Z,2.63
2018-12-17T09:53:09.750Z,2.90
2018-12-17T09:57:21.907Z,2.93
2018-12-17T10:01:33.979Z,2.83
2018-12-17T10:05:46.067Z,2.97
2018-12-17T10:09:58.183Z,2.80
2018-12-17T10:14:10.284Z,3.00
2018-12-17T10:18:21.811Z,2.83
2018-12-17T10:22:33.628Z,2.17
2018-12-17T10:26:45.396Z,2.60
2018-12-17T10:30:57.441Z,1.93
2018-12-17T10:35:09.411Z,2.87
2018-12-17T10:39:21.414Z,1.97
2018-12-17T10:43:33.586Z,2.30
2018-12-17T10:47:45.683Z,2.60
2018-12-17T10:51:57.885Z,3.20
2018-12-17T10:56:10.022Z,2.60
2018-12-17T11:00:26.887Z,2.97
2018-12-17T11:04:49.790Z,2.43
2018-12-17T11:09:02.346Z,2.80
2018-12-17T11:13:14.175Z,2.70
2018-12-17T11:17:26.039Z,2.97
2018-12-17T11:21:37.847Z,3.67
2018-12-17T11:25:50.188Z,2.43
2018-12-17T11:30:03.160Z,3.00
2018-12-17T11:34:15.243Z,2.67
2018-12-17T11:38:27.303Z,3.10
2018-12-17T11:42:39.488Z,3.30
2018-12-17T11:46:51.515Z,3.93
2018-12-17T11:51:03.644Z,3.40
2018-12-17T11:55:15.643Z,3.43
2018-12-17T11:59:27.264Z,3.80
2018-12-17T12:03:43.177Z,3.27
2018-12-17T12:07:55.195Z,3.27
2018-12-17T12:12:07.183Z,3.20
2018-12-17T12:16:19.262Z,2.80
2018-12-17T12:20:31.454Z,3.27
2018-12-17T12:24:42.975Z,3.60
2018-12-17T12:28:55.927Z,4.23
2018-12-17T12:33:07.791Z,3.97
2018-12-17T12:37:19.888Z,4.37
2018-12-17T12:41:31.988Z,4.37
2018-12-17T12:45:43.640Z,4.00
2018-12-17T12:49:55.348Z,3.40
2018-12-17T12:54:07.051Z,4.77
2018-12-17T12:58:18.897Z,4.10
2018-12-17T13:02:30.922Z,4.07
2018-12-17T13:06:43.007Z,4.20
2018-12-17T13:10:54.639Z,4.00
2018-12-17T13:15:07.060Z,3.03
2018-12-17T13:19:18.769Z,3.30
2018-12-17T13:23:30.473Z,3.83
2018-12-17T13:27:42.228Z,3.63
2018-12-17T13:31:54.227Z,4.17
2018-12-17T13:36:06.307Z,4.60
2018-12-17T13:40:18.349Z,4.60
2018-12-17T13:44:30.448Z,4.87
2018-12-17T13:48:42.289Z,4.27
2018-12-17T13:52:56.046Z,4.70
2018-12-17T13:57:07.620Z,3.93
2018-12-17T14:01:21.981Z,4.17
2018-12-17T14:05:33.180Z,4.97
2018-12-17T14:09:49.919Z,4.37
2018-12-17T14:14:02.016Z,4.40
2018-12-17T14:18:18.611Z,3.90
2018-12-17T14:22:30.421Z,4.80
2018-12-17T14:26:42.194Z,4.77
2018-12-17T14:30:54.100Z,4.70
2018-12-17T14:35:06.263Z,4.87
2018-12-17T14:39:18.437Z,4.87
2018-12-17T14:43:30.419Z,4.37
2018-12-17T14:47:42.403Z,5.00
2018-12-17T14:51:54.523Z,5.83
2018-12-17T14:56:06.543Z,4.37
2018-12-17T15:00:19.967Z,4.20
2018-12-17T15:04:31.612Z,4.53
2018-12-17T15:08:43.407Z,4.40
2018-12-17T15:12:55.361Z,5.20
2018-12-17T15:17:07.320Z,3.63
2018-12-17T15:21:19.286Z,3.40
2018-12-17T15:25:31.403Z,3.80
2018-12-17T15:29:43.514Z,4.57
2018-12-17T15:33:55.626Z,3.77
2018-12-17T15:38:07.700Z,4.73
2018-12-17T15:42:19.336Z,4.47
2018-12-17T15:46:31.083Z,4.00
2018-12-17T15:50:43.068Z,4.30
2018-12-17T15:54:54.811Z,4.60
2018-12-17T15:59:06.727Z,4.63
2018-12-17T16:03:18.824Z,3.90
2018-12-17T16:07:30.830Z,4.87
2018-12-17T16:11:42.979Z,4.43
2018-12-17T16:16:00.595Z,5.37
2018-12-17T16:20:12.428Z,4.93
2018-12-17T16:24:24.142Z,4.97
2018-12-17T16:28:35.983Z,5.07
2018-12-17T16:32:47.985Z,3.93
2018-12-17T16:37:00.303Z,3.87
2018-12-17T16:41:12.220Z,4.50
2018-12-17T16:45:24.219Z,4.90
2018-12-17T16:49:36.408Z,4.43
2018-12-17T16:53:48.422Z,5.37
2018-12-17T16:58:00.004Z,5.43
2018-12-17T17:02:15.181Z,4.67
2018-12-17T17:06:30.229Z,4.50
2018-12-17T17:10:45.389Z,4.60
2018-12-17T17:15:00.087Z,5.30
2018-12-17T17:19:15.223Z,5.47
2018-12-17T17:23:31.905Z,5.17
2018-12-17T17:27:48.245Z,5.23
2018-12-17T17:32:03.792Z,5.20
2018-12-17T17:36:18.854Z,5.40
2018-12-17T17:40:35.209Z,4.60
2018-12-17T17:44:50.796Z,4.97
2018-12-17T17:49:07.564Z,5.07
2018-12-17T17:53:24.398Z,4.80
2018-12-17T17:57:38.950Z,5.60
2018-12-17T18:01:55.264Z,3.97
2018-12-17T18:06:16.284Z,4.77
2018-12-17T18:10:27.665Z,5.00
2018-12-17T18:14:43.754Z,4.33
2018-12-17T18:18:58.610Z,5.60
2018-12-17T18:23:13.012Z,5.57
2018-12-17T18:27:27.694Z,4.83
2018-12-17T18:31:39.564Z,5.50
2018-12-17T18:35:51.440Z,5.13
2018-12-17T18:40:03.348Z,4.60
2018-12-17T18:44:15.139Z,4.77
2018-12-17T18:48:27.140Z,4.73
2018-12-17T18:52:39.242Z,5.43
2018-12-17T18:56:51.344Z,5.07
2018-12-17T19:01:03.360Z,5.80
2018-12-17T19:05:15.473Z,5.63
2018-12-17T19:09:27.567Z,5.33
2018-12-17T19:13:39.782Z,5.73
2018-12-17T19:17:51.869Z,5.43
2018-12-17T19:22:04.007Z,6.07
2018-12-17T19:26:16.273Z,5.20
2018-12-17T19:30:28.343Z,5.60
2018-12-17T19:34:40.436Z,6.17
2018-12-17T19:38:52.531Z,4.73
2018-12-17T19:43:04.117Z,6.17
2018-12-17T19:47:15.774Z,6.00
2018-12-17T19:51:27.639Z,5.63
2018-12-17T19:55:39.630Z,4.83
2018-12-17T19:59:51.764Z,5.00
2018-12-17T20:04:03.847Z,5.27
2018-12-17T20:08:15.395Z,5.27
2018-12-17T20:12:27.197Z,5.27
2018-12-17T20:16:38.893Z,5.13
2018-12-17T20:20:50.876Z,4.63
2018-12-17T20:25:03.371Z,5.17
2018-12-17T20:29:15.680Z,4.83
2018-12-17T20:33:28.114Z,4.87
2018-12-17T20:37:39.856Z,4.73
2018-12-17T20:41:51.567Z,5.27
2018-12-17T20:46:03.518Z,5.50
2018-12-17T20:50:15.523Z,5.13
2018-12-17T20:54:27.515Z,5.30
2018-12-17T20:58:40.031Z,5.33
2018-12-17T21:02:51.948Z,5.47
2018-12-17T21:07:03.888Z,5.27
2018-12-17T21:11:16.059Z,3.97
2018-12-17T21:15:27.963Z,5.23
2018-12-17T21:19:40.104Z,5.43
2018-12-17T21:23:52.082Z,4.10
2018-12-17T21:28:04.236Z,10.43
2018-12-17T21:32:16.256Z,6.57
2018-12-17T21:36:28.307Z,5.17
2018-12-17T21:40:40.398Z,5.23
2018-12-17T21:44:52.025Z,5.33
2018-12-17T21:49:04.100Z,6.17
2018-12-17T21:53:17.168Z,4.73
2018-12-17T21:57:29.157Z,4.93
2018-12-17T22:01:41.050Z,4.87
2018-12-17T22:05:53.047Z,4.43
2018-12-17T22:10:05.210Z,4.50
2018-12-17T22:14:17.175Z,5.00
2018-12-17T22:18:29.159Z,4.50
2018-12-17T22:22:40.711Z,5.63
2018-12-17T22:26:52.411Z,4.50
2018-12-17T22:31:04.303Z,4.93
2018-12-17T22:35:16.248Z,4.50
2018-12-17T22:39:28.289Z,4.30
2018-12-17T22:43:40.438Z,4.83
2018-12-17T22:47:52.448Z,4.83
2018-12-17T22:52:04.535Z,4.87
2018-12-17T22:56:16.519Z,4.93
2018-12-17T23:00:28.704Z,5.07
2018-12-17T23:04:40.738Z,5.13
2018-12-17T23:09:02.826Z,3.93
2018-12-17T23:13:25.061Z,4.43
2018-12-17T23:17:43.291Z,4.20
2018-12-17T23:21:55.759Z,5.40
2018-12-17T23:26:07.728Z,4.73
2018-12-17T23:30:22.194Z,4.80
2018-12-17T23:34:33.897Z,4.53
2018-12-17T23:38:45.690Z,3.70
2018-12-17T23:42:57.551Z,4.57
2018-12-17T23:47:09.720Z,3.73
2018-12-17T23:51:21.548Z,3.87
2018-12-17T23:55:33.374Z,4.60
2018-12-17T23:59:45.476Z,4.23
